sensor_id;sensor_type;location;lat;lon;timestamp;temperature;humidity
34153;DHT22;20426;48.372;10.888;2023-03-20T00:00:36;10.30;99.90
34153;DHT22;20426;48.372;10.888;2023-03-20T00:01:30;10.30;99.90
34153;DHT22;20426;48.372;10.888;2023-03-20T00:02:04;10.30;99.90
34153;DHT22;20426;48.372;10.888;2023-03-20T00:02:35;10.30;99.90
34153;DHT22;20426;48.372;10.888;2023-03-20T00:03:10;10.30;99.90
34153;DHT22;20426;48.372;10.888;2023-03-20T00:03:41;10.30;99.90
34153;DHT22;20426;48.372;10.888;2023-03-20T00:04:12;10.30;99.90
34153;DHT22;20426;48.372;10.888;2023-03-20T00:04:43;10.30;99.90
34153;DHT22;20426;48.372;10.888;2023-03-20T00:05:18;10.30;99.90
34153;DHT22;20426;48.372;10.888;2023-03-20T00:05:50;10.30;99.90
34153;DHT22;20426;48.372;10.888;2023-03-20T00:06:23;10.30;99.90
34153;DHT22;20426;48.372;10.888;2023-03-20T00:06:54;10.30;99.90
34153;DHT22;20426;48.372;10.888;2023-03-20T00:07:25;10.30;99.90
34153;DHT22;20426;48.372;10.888;2023-03-20T00:07:56;10.30;99.90
34153;DHT22;20426;48.372;10.888;2023-03-20T00:08:28;10.30;99.90
34153;DHT22;20426;48.372;10.888;2023-03-20T00:08:58;10.30;99.90
34153;DHT22;20426;48.372;10.888;2023-03-20T00:09:29;10.30;99.90
34153;DHT22;20426;48.372;10.888;2023-03-20T00:10:00;10.30;99.90
34153;DHT22;20426;48.372;10.888;2023-03-20T00:10:35;10.30;99.90
34153;DHT22;20426;48.372;10.888;2023-03-20T00:11:56;10.30;99.90
34153;DHT22;20426;48.372;10.888;2023-03-20T00:12:27;10.30;99.90
34153;DHT22;20426;48.372;10.888;2023-03-20T00:12:58;10.30;99.90
34153;DHT22;20426;48.372;10.888;2023-03-20T00:13:29;10.30;99.90
34153;DHT22;20426;48.372;10.888;2023-03-20T00:14:06;10.30;99.90
34153;DHT22;20426;48.372;10.888;2023-03-20T00:14:37;10.30;99.90
34153;DHT22;20426;48.372;10.888;2023-03-20T00:15:19;10.30;99.90
34153;DHT22;20426;48.372;10.888;2023-03-20T00:15:52;10.30;99.90
34153;DHT22;20426;48.372;10.888;2023-03-20T00:16:24;10.30;99.90
34153;DHT22;20426;48.372;10.888;2023-03-20T00:16:56;10.30;99.90
34153;DHT22;20426;48.372;10.888;2023-03-20T00:17:27;10.30;99.90
34153;DHT22;20426;48.372;10.888;2023-03-20T00:17:58;10.30;99.90
34153;DHT22;20426;48.372;10.888;2023-03-20T00:18:29;10.30;99.90
34153;DHT22;20426;48.372;10.888;2023-03-20T00:19:00;10.30;99.90
34153;DHT22;20426;48.372;10.888;2023-03-20T00:19:31;10.30;99.90
34153;DHT22;20426;48.372;10.888;2023-03-20T00:20:02;10.30;99.90
34153;DHT22;20426;48.372;10.888;2023-03-20T00:20:33;10.30;99.90
34153;DHT22;20426;48.372;10.888;2023-03-20T00:21:03;10.30;99.90
34153;DHT22;20426;48.372;10.888;2023-03-20T00:21:34;10.30;99.90
34153;DHT22;20426;48.372;10.888;2023-03-20T00:22:05;10.30;99.90
34153;DHT22;20426;48.372;10.888;2023-03-20T00:22:35;10.40;99.90
34153;DHT22;20426;48.372;10.888;2023-03-20T00:23:06;10.30;99.90
34153;DHT22;20426;48.372;10.888;2023-03-20T00:23:37;10.30;99.90
34153;DHT22;20426;48.372;10.888;2023-03-20T00:24:08;10.40;99.90
34153;DHT22;20426;48.372;10.888;2023-03-20T00:24:38;10.40;99.90
34153;DHT22;20426;48.372;10.888;2023-03-20T00:25:18;10.40;99.90
34153;DHT22;20426;48.372;10.888;2023-03-20T00:25:51;10.40;99.90
34153;DHT22;20426;48.372;10.888;2023-03-20T00:26:25;10.40;99.90
34153;DHT22;20426;48.372;10.888;2023-03-20T00:26:57;10.40;99.90
34153;DHT22;20426;48.372;10.888;2023-03-20T00:27:28;10.40;99.90
34153;DHT22;20426;48.372;10.888;2023-03-20T00:27:59;10.40;99.90
34153;DHT22;20426;48.372;10.888;2023-03-20T00:29:04;10.40;99.90
34153;DHT22;20426;48.372;10.888;2023-03-20T00:29:36;10.40;99.90
34153;DHT22;20426;48.372;10.888;2023-03-20T00:30:27;10.40;99.90
34153;DHT22;20426;48.372;10.888;2023-03-20T00:30:58;10.40;99.90
34153;DHT22;20426;48.372;10.888;2023-03-20T00:31:37;10.40;99.90
34153;DHT22;20426;48.372;10.888;2023-03-20T00:32:11;10.40;99.90
34153;DHT22;20426;48.372;10.888;2023-03-20T00:32:42;10.40;99.90
34153;DHT22;20426;48.372;10.888;2023-03-20T00:33:13;10.40;99.90
34153;DHT22;20426;48.372;10.888;2023-03-20T00:33:44;10.30;99.90
34153;DHT22;20426;48.372;10.888;2023-03-20T00:34:17;10.30;99.90
34153;DHT22;20426;48.372;10.888;2023-03-20T00:34:48;10.30;99.90
34153;DHT22;20426;48.372;10.888;2023-03-20T00:35:30;10.30;99.90
34153;DHT22;20426;48.372;10.888;2023-03-20T00:36:01;10.30;99.90
34153;DHT22;20426;48.372;10.888;2023-03-20T00:36:32;10.30;99.90
34153;DHT22;20426;48.372;10.888;2023-03-20T00:37:03;10.30;99.90
34153;DHT22;20426;48.372;10.888;2023-03-20T00:37:33;10.30;99.90
34153;DHT22;20426;48.372;10.888;2023-03-20T00:38:04;10.30;99.90
34153;DHT22;20426;48.372;10.888;2023-03-20T00:38:35;10.30;99.90
34153;DHT22;20426;48.372;10.888;2023-03-20T00:39:06;10.30;99.90
34153;DHT22;20426;48.372;10.888;2023-03-20T00:39:37;10.30;99.90
34153;DHT22;20426;48.372;10.888;2023-03-20T00:40:08;10.30;99.90
34153;DHT22;20426;48.372;10.888;2023-03-20T00:40:39;10.30;99.90
34153;DHT22;20426;48.372;10.888;2023-03-20T00:41:21;10.30;99.90
34153;DHT22;20426;48.372;10.888;2023-03-20T00:41:53;10.30;99.90
34153;DHT22;20426;48.372;10.888;2023-03-20T00:42:25;10.30;99.90
34153;DHT22;20426;48.372;10.888;2023-03-20T00:43:00;10.30;99.90
34153;DHT22;20426;48.372;10.888;2023-03-20T00:43:31;10.30;99.90
34153;DHT22;20426;48.372;10.888;2023-03-20T00:45:05;10.30;99.90
34153;DHT22;20426;48.372;10.888;2023-03-20T00:45:36;10.30;99.90
34153;DHT22;20426;48.372;10.888;2023-03-20T00:46:11;10.30;99.90
34153;DHT22;20426;48.372;10.888;2023-03-20T00:46:45;10.40;99.90
34153;DHT22;20426;48.372;10.888;2023-03-20T00:47:23;10.30;99.90
34153;DHT22;20426;48.372;10.888;2023-03-20T00:47:55;10.30;99.90
34153;DHT22;20426;48.372;10.888;2023-03-20T00:48:27;10.30;99.90
34153;DHT22;20426;48.372;10.888;2023-03-20T00:48:57;10.30;99.90
34153;DHT22;20426;48.372;10.888;2023-03-20T00:49:31;10.30;99.90
34153;DHT22;20426;48.372;10.888;2023-03-20T00:50:12;10.30;99.90
34153;DHT22;20426;48.372;10.888;2023-03-20T00:50:44;10.30;99.90
34153;DHT22;20426;48.372;10.888;2023-03-20T00:51:15;10.30;99.90
34153;DHT22;20426;48.372;10.888;2023-03-20T00:51:46;10.40;99.90
34153;DHT22;20426;48.372;10.888;2023-03-20T00:52:18;10.30;99.90
34153;DHT22;20426;48.372;10.888;2023-03-20T00:52:50;10.40;99.90
34153;DHT22;20426;48.372;10.888;2023-03-20T00:53:21;10.40;99.90
34153;DHT22;20426;48.372;10.888;2023-03-20T00:53:51;10.30;99.90
34153;DHT22;20426;48.372;10.888;2023-03-20T00:54:22;10.30;99.90
34153;DHT22;20426;48.372;10.888;2023-03-20T00:54:53;10.30;99.90
34153;DHT22;20426;48.372;10.888;2023-03-20T00:55:26;10.30;99.90
34153;DHT22;20426;48.372;10.888;2023-03-20T00:55:57;10.30;99.90
34153;DHT22;20426;48.372;10.888;2023-03-20T00:56:35;10.30;99.90
34153;DHT22;20426;48.372;10.888;2023-03-20T00:58:03;10.30;99.90
34153;DHT22;20426;48.372;10.888;2023-03-20T00:58:33;10.30;99.90
34153;DHT22;20426;48.372;10.888;2023-03-20T00:59:04;10.30;99.90
34153;DHT22;20426;48.372;10.888;2023-03-20T00:59:39;10.30;99.90
34153;DHT22;20426;48.372;10.888;2023-03-20T01:00:53;10.30;99.90
34153;DHT22;20426;48.372;10.888;2023-03-20T01:01:24;10.30;99.90
34153;DHT22;20426;48.372;10.888;2023-03-20T01:01:55;10.30;99.90
34153;DHT22;20426;48.372;10.888;2023-03-20T01:02:28;10.30;99.90
34153;DHT22;20426;48.372;10.888;2023-03-20T01:03:01;10.30;99.90
34153;DHT22;20426;48.372;10.888;2023-03-20T01:03:34;10.30;99.90
34153;DHT22;20426;48.372;10.888;2023-03-20T01:04:11;10.30;99.90
34153;DHT22;20426;48.372;10.888;2023-03-20T01:04:42;10.30;99.90
34153;DHT22;20426;48.372;10.888;2023-03-20T01:05:13;10.30;99.90
34153;DHT22;20426;48.372;10.888;2023-03-20T01:05:44;10.30;99.90
34153;DHT22;20426;48.372;10.888;2023-03-20T01:06:15;10.30;99.90
34153;DHT22;20426;48.372;10.888;2023-03-20T01:06:48;10.30;99.90
34153;DHT22;20426;48.372;10.888;2023-03-20T01:07:20;10.30;99.90
34153;DHT22;20426;48.372;10.888;2023-03-20T01:07:51;10.30;99.90
34153;DHT22;20426;48.372;10.888;2023-03-20T01:08:24;10.30;99.90
34153;DHT22;20426;48.372;10.888;2023-03-20T01:08:55;10.30;99.90
34153;DHT22;20426;48.372;10.888;2023-03-20T01:09:27;10.30;99.90
34153;DHT22;20426;48.372;10.888;2023-03-20T01:09:58;10.30;99.90
34153;DHT22;20426;48.372;10.888;2023-03-20T01:10:30;10.30;99.90
34153;DHT22;20426;48.372;10.888;2023-03-20T01:11:01;10.30;99.90
34153;DHT22;20426;48.372;10.888;2023-03-20T01:11:32;10.30;99.90
34153;DHT22;20426;48.372;10.888;2023-03-20T01:12:04;10.30;99.90
34153;DHT22;20426;48.372;10.888;2023-03-20T01:12:40;10.40;99.90
34153;DHT22;20426;48.372;10.888;2023-03-20T01:13:25;10.40;99.90
34153;DHT22;20426;48.372;10.888;2023-03-20T01:13:56;10.40;99.90
34153;DHT22;20426;48.372;10.888;2023-03-20T01:14:27;10.40;99.90
34153;DHT22;20426;48.372;10.888;2023-03-20T01:14:58;10.40;99.90
34153;DHT22;20426;48.372;10.888;2023-03-20T01:15:31;10.40;99.90
34153;DHT22;20426;48.372;10.888;2023-03-20T01:16:02;10.40;99.90
34153;DHT22;20426;48.372;10.888;2023-03-20T01:16:33;10.30;99.90
34153;DHT22;20426;48.372;10.888;2023-03-20T01:17:04;10.30;99.90
34153;DHT22;20426;48.372;10.888;2023-03-20T01:17:34;10.30;99.90
34153;DHT22;20426;48.372;10.888;2023-03-20T01:18:05;10.30;99.90
34153;DHT22;20426;48.372;10.888;2023-03-20T01:18:36;10.30;99.90
34153;DHT22;20426;48.372;10.888;2023-03-20T01:19:11;10.30;99.90
34153;DHT22;20426;48.372;10.888;2023-03-20T01:19:42;10.30;99.90
34153;DHT22;20426;48.372;10.888;2023-03-20T01:20:19;10.20;99.90
34153;DHT22;20426;48.372;10.888;2023-03-20T01:20:51;10.30;99.90
34153;DHT22;20426;48.372;10.888;2023-03-20T01:21:22;10.30;99.90
34153;DHT22;20426;48.372;10.888;2023-03-20T01:21:53;10.30;99.90
34153;DHT22;20426;48.372;10.888;2023-03-20T01:22:24;10.30;99.90
34153;DHT22;20426;48.372;10.888;2023-03-20T01:22:55;10.30;99.90
34153;DHT22;20426;48.372;10.888;2023-03-20T01:23:25;10.30;99.90
34153;DHT22;20426;48.372;10.888;2023-03-20T01:23:56;10.30;99.90
34153;DHT22;20426;48.372;10.888;2023-03-20T01:24:27;10.30;99.90
34153;DHT22;20426;48.372;10.888;2023-03-20T01:24:58;10.30;99.90
34153;DHT22;20426;48.372;10.888;2023-03-20T01:25:29;10.30;99.90
34153;DHT22;20426;48.372;10.888;2023-03-20T01:25:59;10.30;99.90
34153;DHT22;20426;48.372;10.888;2023-03-20T01:26:38;10.30;99.90
34153;DHT22;20426;48.372;10.888;2023-03-20T01:27:14;10.30;99.90
34153;DHT22;20426;48.372;10.888;2023-03-20T01:27:53;10.30;99.90
34153;DHT22;20426;48.372;10.888;2023-03-20T01:28:24;10.20;99.90
34153;DHT22;20426;48.372;10.888;2023-03-20T01:28:55;10.30;99.90
34153;DHT22;20426;48.372;10.888;2023-03-20T01:29:26;10.20;99.90
34153;DHT22;20426;48.372;10.888;2023-03-20T01:29:57;10.30;99.90
34153;DHT22;20426;48.372;10.888;2023-03-20T01:30:29;10.20;99.90
34153;DHT22;20426;48.372;10.888;2023-03-20T01:31:00;10.30;99.90
34153;DHT22;20426;48.372;10.888;2023-03-20T01:31:31;10.20;99.90
34153;DHT22;20426;48.372;10.888;2023-03-20T01:32:02;10.30;99.90
34153;DHT22;20426;48.372;10.888;2023-03-20T01:32:32;10.30;99.90
34153;DHT22;20426;48.372;10.888;2023-03-20T01:33:13;10.30;99.90
34153;DHT22;20426;48.372;10.888;2023-03-20T01:33:44;10.30;99.90
34153;DHT22;20426;48.372;10.888;2023-03-20T01:34:15;10.30;99.90
34153;DHT22;20426;48.372;10.888;2023-03-20T01:34:46;10.30;99.90
34153;DHT22;20426;48.372;10.888;2023-03-20T01:35:21;10.30;99.90
34153;DHT22;20426;48.372;10.888;2023-03-20T01:35:53;10.30;99.90
34153;DHT22;20426;48.372;10.888;2023-03-20T01:36:24;10.30;99.90
34153;DHT22;20426;48.372;10.888;2023-03-20T01:36:56;10.30;99.90
34153;DHT22;20426;48.372;10.888;2023-03-20T01:37:28;10.30;99.90
34153;DHT22;20426;48.372;10.888;2023-03-20T01:37:59;10.30;99.90
34153;DHT22;20426;48.372;10.888;2023-03-20T01:38:30;10.20;99.90
34153;DHT22;20426;48.372;10.888;2023-03-20T01:39:01;10.20;99.90
34153;DHT22;20426;48.372;10.888;2023-03-20T01:39:34;10.30;99.90
34153;DHT22;20426;48.372;10.888;2023-03-20T01:40:20;10.20;99.90
34153;DHT22;20426;48.372;10.888;2023-03-20T01:41:25;10.20;99.90
34153;DHT22;20426;48.372;10.888;2023-03-20T01:41:55;10.20;99.90
34153;DHT22;20426;48.372;10.888;2023-03-20T01:42:26;10.20;99.90
34153;DHT22;20426;48.372;10.888;2023-03-20T01:42:59;10.20;99.90
34153;DHT22;20426;48.372;10.888;2023-03-20T01:43:31;10.20;99.90
34153;DHT22;20426;48.372;10.888;2023-03-20T01:44:19;10.20;99.90
34153;DHT22;20426;48.372;10.888;2023-03-20T01:44:50;10.20;99.90
34153;DHT22;20426;48.372;10.888;2023-03-20T01:45:27;10.20;99.90
34153;DHT22;20426;48.372;10.888;2023-03-20T01:46:14;10.20;99.90
34153;DHT22;20426;48.372;10.888;2023-03-20T01:46:51;10.20;99.90
34153;DHT22;20426;48.372;10.888;2023-03-20T01:47:23;10.20;99.90
34153;DHT22;20426;48.372;10.888;2023-03-20T01:47:55;10.20;99.90
34153;DHT22;20426;48.372;10.888;2023-03-20T01:50:40;10.20;99.90
34153;DHT22;20426;48.372;10.888;2023-03-20T01:51:10;10.20;99.90
34153;DHT22;20426;48.372;10.888;2023-03-20T01:51:41;10.20;99.90
34153;DHT22;20426;48.372;10.888;2023-03-20T01:52:12;10.20;99.90
34153;DHT22;20426;48.372;10.888;2023-03-20T01:52:43;10.20;99.90
34153;DHT22;20426;48.372;10.888;2023-03-20T01:53:26;10.20;99.90
34153;DHT22;20426;48.372;10.888;2023-03-20T01:54:02;10.10;99.90
34153;DHT22;20426;48.372;10.888;2023-03-20T01:54:36;10.10;99.90
34153;DHT22;20426;48.372;10.888;2023-03-20T01:55:08;10.10;99.90
34153;DHT22;20426;48.372;10.888;2023-03-20T01:55:40;10.10;99.90
34153;DHT22;20426;48.372;10.888;2023-03-20T01:56:14;10.10;99.90
34153;DHT22;20426;48.372;10.888;2023-03-20T01:56:53;10.10;99.90
34153;DHT22;20426;48.372;10.888;2023-03-20T01:57:26;10.10;99.90
34153;DHT22;20426;48.372;10.888;2023-03-20T01:58:00;10.10;99.90
34153;DHT22;20426;48.372;10.888;2023-03-20T01:58:38;10.10;99.90
34153;DHT22;20426;48.372;10.888;2023-03-20T01:59:17;10.10;99.90
34153;DHT22;20426;48.372;10.888;2023-03-20T01:59:55;10.10;99.90
34153;DHT22;20426;48.372;10.888;2023-03-20T02:00:26;10.10;99.90
34153;DHT22;20426;48.372;10.888;2023-03-20T02:00:58;10.10;99.90
34153;DHT22;20426;48.372;10.888;2023-03-20T02:01:29;10.10;99.90
34153;DHT22;20426;48.372;10.888;2023-03-20T02:02:00;10.10;99.90
34153;DHT22;20426;48.372;10.888;2023-03-20T02:02:31;10.00;99.90
34153;DHT22;20426;48.372;10.888;2023-03-20T02:03:04;10.00;99.90
34153;DHT22;20426;48.372;10.888;2023-03-20T02:03:35;10.10;99.90
34153;DHT22;20426;48.372;10.888;2023-03-20T02:04:08;10.10;99.90
34153;DHT22;20426;48.372;10.888;2023-03-20T02:04:42;10.00;99.90
34153;DHT22;20426;48.372;10.888;2023-03-20T02:05:18;10.10;99.90
34153;DHT22;20426;48.372;10.888;2023-03-20T02:05:49;10.00;99.90
34153;DHT22;20426;48.372;10.888;2023-03-20T02:06:21;10.00;99.90
34153;DHT22;20426;48.372;10.888;2023-03-20T02:06:53;10.00;99.90
34153;DHT22;20426;48.372;10.888;2023-03-20T02:07:24;10.00;99.90
34153;DHT22;20426;48.372;10.888;2023-03-20T02:08:19;10.00;99.90
34153;DHT22;20426;48.372;10.888;2023-03-20T02:08:52;10.00;99.90
34153;DHT22;20426;48.372;10.888;2023-03-20T02:09:22;10.10;99.90
34153;DHT22;20426;48.372;10.888;2023-03-20T02:09:53;10.00;99.90
34153;DHT22;20426;48.372;10.888;2023-03-20T02:10:24;10.10;99.90
34153;DHT22;20426;48.372;10.888;2023-03-20T02:10:58;10.00;99.90
34153;DHT22;20426;48.372;10.888;2023-03-20T02:11:30;10.10;99.90
34153;DHT22;20426;48.372;10.888;2023-03-20T02:12:02;10.10;99.90
34153;DHT22;20426;48.372;10.888;2023-03-20T02:12:34;10.10;99.90
34153;DHT22;20426;48.372;10.888;2023-03-20T02:13:05;10.10;99.90
34153;DHT22;20426;48.372;10.888;2023-03-20T02:13:37;10.10;99.90
34153;DHT22;20426;48.372;10.888;2023-03-20T02:14:09;10.10;99.90
34153;DHT22;20426;48.372;10.888;2023-03-20T02:14:40;10.10;99.90
34153;DHT22;20426;48.372;10.888;2023-03-20T02:15:13;10.10;99.90
34153;DHT22;20426;48.372;10.888;2023-03-20T02:16:33;10.00;99.90
34153;DHT22;20426;48.372;10.888;2023-03-20T02:17:05;10.00;99.90
34153;DHT22;20426;48.372;10.888;2023-03-20T02:17:38;10.00;99.90
34153;DHT22;20426;48.372;10.888;2023-03-20T02:18:08;10.00;99.90
34153;DHT22;20426;48.372;10.888;2023-03-20T02:18:42;10.00;99.90
34153;DHT22;20426;48.372;10.888;2023-03-20T02:30:53;10.00;99.90
34153;DHT22;20426;48.372;10.888;2023-03-20T02:37:29;9.90;99.90
34153;DHT22;20426;48.372;10.888;2023-03-20T02:40:56;9.90;99.90
34153;DHT22;20426;48.372;10.888;2023-03-20T02:41:41;9.90;99.90
34153;DHT22;20426;48.372;10.888;2023-03-20T02:43:28;9.90;99.90
34153;DHT22;20426;48.372;10.888;2023-03-20T02:44:29;9.90;99.90
34153;DHT22;20426;48.372;10.888;2023-03-20T02:47:30;9.90;99.90
34153;DHT22;20426;48.372;10.888;2023-03-20T02:49:33;9.90;99.90
34153;DHT22;20426;48.372;10.888;2023-03-20T02:50:26;9.80;99.90
34153;DHT22;20426;48.372;10.888;2023-03-20T02:51:18;9.90;99.90
34153;DHT22;20426;48.372;10.888;2023-03-20T02:51:59;9.80;99.90
34153;DHT22;20426;48.372;10.888;2023-03-20T02:53:19;9.80;99.90
34153;DHT22;20426;48.372;10.888;2023-03-20T02:53:58;9.80;99.90
34153;DHT22;20426;48.372;10.888;2023-03-20T02:56:57;9.80;99.90
34153;DHT22;20426;48.372;10.888;2023-03-20T02:58:16;9.80;99.90
34153;DHT22;20426;48.372;10.888;2023-03-20T02:59:13;9.80;99.90
34153;DHT22;20426;48.372;10.888;2023-03-20T03:01:43;9.80;99.90
34153;DHT22;20426;48.372;10.888;2023-03-20T03:02:21;9.80;99.90
34153;DHT22;20426;48.372;10.888;2023-03-20T03:03:07;9.80;99.90
34153;DHT22;20426;48.372;10.888;2023-03-20T03:04:01;9.80;99.90
34153;DHT22;20426;48.372;10.888;2023-03-20T03:04:39;9.80;99.90
34153;DHT22;20426;48.372;10.888;2023-03-20T03:05:15;9.80;99.90
34153;DHT22;20426;48.372;10.888;2023-03-20T03:05:53;9.80;99.90
34153;DHT22;20426;48.372;10.888;2023-03-20T03:06:30;9.80;99.90
34153;DHT22;20426;48.372;10.888;2023-03-20T03:07:02;9.80;99.90
34153;DHT22;20426;48.372;10.888;2023-03-20T03:07:36;9.80;99.90
34153;DHT22;20426;48.372;10.888;2023-03-20T03:08:12;9.80;99.90
34153;DHT22;20426;48.372;10.888;2023-03-20T03:08:49;9.70;99.90
34153;DHT22;20426;48.372;10.888;2023-03-20T03:09:29;9.70;99.90
34153;DHT22;20426;48.372;10.888;2023-03-20T03:10:16;9.70;99.90
34153;DHT22;20426;48.372;10.888;2023-03-20T03:10:55;9.70;99.90
34153;DHT22;20426;48.372;10.888;2023-03-20T03:11:27;9.80;99.90
34153;DHT22;20426;48.372;10.888;2023-03-20T03:12:03;9.70;99.90
34153;DHT22;20426;48.372;10.888;2023-03-20T03:12:39;9.80;99.90
34153;DHT22;20426;48.372;10.888;2023-03-20T03:13:16;9.80;99.90
34153;DHT22;20426;48.372;10.888;2023-03-20T03:13:50;9.80;99.90
34153;DHT22;20426;48.372;10.888;2023-03-20T03:14:34;9.70;99.90
34153;DHT22;20426;48.372;10.888;2023-03-20T03:15:13;9.70;99.90
34153;DHT22;20426;48.372;10.888;2023-03-20T03:15:48;9.70;99.90
34153;DHT22;20426;48.372;10.888;2023-03-20T03:16:25;9.60;99.90
34153;DHT22;20426;48.372;10.888;2023-03-20T03:16:57;9.70;99.90
34153;DHT22;20426;48.372;10.888;2023-03-20T03:17:32;9.70;99.90
34153;DHT22;20426;48.372;10.888;2023-03-20T03:18:05;9.60;99.90
34153;DHT22;20426;48.372;10.888;2023-03-20T03:18:38;9.70;99.90
34153;DHT22;20426;48.372;10.888;2023-03-20T03:19:20;9.60;99.90
34153;DHT22;20426;48.372;10.888;2023-03-20T03:19:57;9.70;99.90
34153;DHT22;20426;48.372;10.888;2023-03-20T03:20:31;9.70;99.90
34153;DHT22;20426;48.372;10.888;2023-03-20T03:21:04;9.70;99.90
34153;DHT22;20426;48.372;10.888;2023-03-20T03:21:38;9.70;99.90
34153;DHT22;20426;48.372;10.888;2023-03-20T03:22:09;9.70;99.90
34153;DHT22;20426;48.372;10.888;2023-03-20T03:22:41;9.70;99.90
34153;DHT22;20426;48.372;10.888;2023-03-20T03:23:42;9.60;99.90
34153;DHT22;20426;48.372;10.888;2023-03-20T03:24:53;9.60;99.90
34153;DHT22;20426;48.372;10.888;2023-03-20T03:25:31;9.60;99.90
34153;DHT22;20426;48.372;10.888;2023-03-20T03:26:05;9.60;99.90
34153;DHT22;20426;48.372;10.888;2023-03-20T03:26:38;9.60;99.90
34153;DHT22;20426;48.372;10.888;2023-03-20T03:28:39;9.60;99.90
34153;DHT22;20426;48.372;10.888;2023-03-20T03:29:14;9.50;99.90
34153;DHT22;20426;48.372;10.888;2023-03-20T03:29:51;9.50;99.90
34153;DHT22;20426;48.372;10.888;2023-03-20T03:30:28;9.50;99.90
34153;DHT22;20426;48.372;10.888;2023-03-20T03:31:01;9.50;99.90
34153;DHT22;20426;48.372;10.888;2023-03-20T03:31:33;9.60;99.90
34153;DHT22;20426;48.372;10.888;2023-03-20T03:32:05;9.50;99.90
34153;DHT22;20426;48.372;10.888;2023-03-20T03:32:46;9.60;99.90
34153;DHT22;20426;48.372;10.888;2023-03-20T03:33:24;9.60;99.90
34153;DHT22;20426;48.372;10.888;2023-03-20T03:33:57;9.50;99.90
34153;DHT22;20426;48.372;10.888;2023-03-20T03:34:29;9.50;99.90
34153;DHT22;20426;48.372;10.888;2023-03-20T03:35:02;9.60;99.90
34153;DHT22;20426;48.372;10.888;2023-03-20T03:35:35;9.50;99.90
34153;DHT22;20426;48.372;10.888;2023-03-20T03:37:06;9.50;99.90
34153;DHT22;20426;48.372;10.888;2023-03-20T03:38:01;9.50;99.90
34153;DHT22;20426;48.372;10.888;2023-03-20T03:40:33;9.50;99.90
34153;DHT22;20426;48.372;10.888;2023-03-20T03:41:54;9.50;99.90
34153;DHT22;20426;48.372;10.888;2023-03-20T03:42:34;9.50;99.90
34153;DHT22;20426;48.372;10.888;2023-03-20T03:43:11;9.40;99.90
34153;DHT22;20426;48.372;10.888;2023-03-20T03:44:53;9.40;99.90
34153;DHT22;20426;48.372;10.888;2023-03-20T03:46:04;9.40;99.90
34153;DHT22;20426;48.372;10.888;2023-03-20T03:46:46;9.40;99.90
34153;DHT22;20426;48.372;10.888;2023-03-20T03:47:21;9.40;99.90
34153;DHT22;20426;48.372;10.888;2023-03-20T03:48:34;9.40;99.90
34153;DHT22;20426;48.372;10.888;2023-03-20T03:49:11;9.40;99.90
34153;DHT22;20426;48.372;10.888;2023-03-20T03:49:49;9.40;99.90
34153;DHT22;20426;48.372;10.888;2023-03-20T03:50:24;9.40;99.90
34153;DHT22;20426;48.372;10.888;2023-03-20T03:51:00;9.40;99.90
34153;DHT22;20426;48.372;10.888;2023-03-20T03:51:34;9.30;99.90
34153;DHT22;20426;48.372;10.888;2023-03-20T03:52:10;9.30;99.90
34153;DHT22;20426;48.372;10.888;2023-03-20T03:52:42;9.30;99.90
34153;DHT22;20426;48.372;10.888;2023-03-20T03:53:18;9.30;99.90
34153;DHT22;20426;48.372;10.888;2023-03-20T03:54:12;9.30;99.90
34153;DHT22;20426;48.372;10.888;2023-03-20T03:54:50;9.30;99.90
34153;DHT22;20426;48.372;10.888;2023-03-20T03:55:31;9.30;99.90
34153;DHT22;20426;48.372;10.888;2023-03-20T03:56:07;9.30;99.90
34153;DHT22;20426;48.372;10.888;2023-03-20T03:56:40;9.30;99.90
34153;DHT22;20426;48.372;10.888;2023-03-20T03:57:14;9.30;99.90
34153;DHT22;20426;48.372;10.888;2023-03-20T03:57:52;9.30;99.90
34153;DHT22;20426;48.372;10.888;2023-03-20T03:58:54;9.30;99.90
34153;DHT22;20426;48.372;10.888;2023-03-20T03:59:35;9.30;99.90
34153;DHT22;20426;48.372;10.888;2023-03-20T04:00:08;9.30;99.90
34153;DHT22;20426;48.372;10.888;2023-03-20T04:00:43;9.30;99.90
34153;DHT22;20426;48.372;10.888;2023-03-20T04:01:16;9.30;99.90
34153;DHT22;20426;48.372;10.888;2023-03-20T04:01:50;9.30;99.90
34153;DHT22;20426;48.372;10.888;2023-03-20T04:02:21;9.30;99.90
34153;DHT22;20426;48.372;10.888;2023-03-20T04:02:55;9.30;99.90
34153;DHT22;20426;48.372;10.888;2023-03-20T04:03:34;9.30;99.90
34153;DHT22;20426;48.372;10.888;2023-03-20T04:04:07;9.20;99.90
34153;DHT22;20426;48.372;10.888;2023-03-20T04:04:44;9.20;99.90
34153;DHT22;20426;48.372;10.888;2023-03-20T04:05:17;9.20;99.90
34153;DHT22;20426;48.372;10.888;2023-03-20T04:05:51;9.30;99.90
34153;DHT22;20426;48.372;10.888;2023-03-20T04:06:24;9.20;99.90
34153;DHT22;20426;48.372;10.888;2023-03-20T04:06:56;9.20;99.90
34153;DHT22;20426;48.372;10.888;2023-03-20T04:07:27;9.20;99.90
34153;DHT22;20426;48.372;10.888;2023-03-20T04:08:00;9.20;99.90
34153;DHT22;20426;48.372;10.888;2023-03-20T04:08:32;9.20;99.90
34153;DHT22;20426;48.372;10.888;2023-03-20T04:09:03;9.20;99.90
34153;DHT22;20426;48.372;10.888;2023-03-20T04:09:34;9.30;99.90
34153;DHT22;20426;48.372;10.888;2023-03-20T04:10:05;9.30;99.90
34153;DHT22;20426;48.372;10.888;2023-03-20T04:10:36;9.20;99.90
34153;DHT22;20426;48.372;10.888;2023-03-20T04:11:26;9.30;99.90
34153;DHT22;20426;48.372;10.888;2023-03-20T04:11:59;9.30;99.90
34153;DHT22;20426;48.372;10.888;2023-03-20T04:12:41;9.30;99.90
34153;DHT22;20426;48.372;10.888;2023-03-20T04:13:12;9.30;99.90
34153;DHT22;20426;48.372;10.888;2023-03-20T04:13:45;9.30;99.90
34153;DHT22;20426;48.372;10.888;2023-03-20T04:14:17;9.30;99.90
34153;DHT22;20426;48.372;10.888;2023-03-20T04:14:48;9.30;99.90
34153;DHT22;20426;48.372;10.888;2023-03-20T04:15:19;9.30;99.90
34153;DHT22;20426;48.372;10.888;2023-03-20T04:15:51;9.30;99.90
34153;DHT22;20426;48.372;10.888;2023-03-20T04:16:23;9.30;99.90
34153;DHT22;20426;48.372;10.888;2023-03-20T04:16:54;9.30;99.90
34153;DHT22;20426;48.372;10.888;2023-03-20T04:17:25;9.30;99.90
34153;DHT22;20426;48.372;10.888;2023-03-20T04:17:55;9.30;99.90
34153;DHT22;20426;48.372;10.888;2023-03-20T04:18:26;9.30;99.90
34153;DHT22;20426;48.372;10.888;2023-03-20T04:18:57;9.30;99.90
34153;DHT22;20426;48.372;10.888;2023-03-20T04:19:27;9.30;99.90
34153;DHT22;20426;48.372;10.888;2023-03-20T04:19:58;9.30;99.90
34153;DHT22;20426;48.372;10.888;2023-03-20T04:20:30;9.30;99.90
34153;DHT22;20426;48.372;10.888;2023-03-20T04:21:00;9.30;99.90
34153;DHT22;20426;48.372;10.888;2023-03-20T04:21:31;9.30;99.90